^^
Grace C. Lehan Memorial Weather Station Historical Data
Daily Summary for July 16, 2022 Units:  Both    English   Metric
Daily Weekly Monthly Yearly
  High: Low: Average:
Temperature: 74.6 °F /  23.7 °C 49.1 °F /  9.5 °C 62.7 °F /  17.1 °C
Dew Point: 54.9 °F /  12.7 °C 45.7 °F /  7.6 °C 49.7 °F /  9.8 °C
Humidity: 90% 44.7% 65%
Wind Speed: 3.5mph /  5.6km/h - 0.7mph /  1.1km/h
Wind Gust: 14mph /  22.5km/h - -
Wind- - WNW
Pressure: 30.17 in /  1021.6 hPa 30.07 in /  1018.2 hPa -
Precipitation: 0.00 in /  0 mm    
 
 
Tabular Data for July 16, 2022
Time Temperature Dew Point Pressure Wind Wind Speed Wind Gust Humidity Rainfall Rate (Hourly) solar
00:09 58.1 °F /  14.5 °C 46.8 °F /  8.2 °C 30.15in /  1020.9hPa Calm     66% 0.00in /  0mm 0 W/m2
00:14 57.9 °F /  14.4 °C 46.9 °F /  8.3 °C 30.15in /  1020.9hPa Calm     66.8% 0.00in /  0mm 0 W/m2
00:19 57.7 °F /  14.3 °C 47.1 °F /  8.4 °C 30.15in /  1020.9hPa Calm     67.6% 0.00in /  0mm 0 W/m2
00:24 57.5 °F /  14.2 °C 47 °F /  8.3 °C 30.15in /  1020.9hPa Calm     68% 0.00in /  0mm 0 W/m2
00:29 57.2 °F /  14 °C 46.8 °F /  8.2 °C 30.15in /  1020.9hPa Calm     68% 0.00in /  0mm 0 W/m2
00:34 57 °F /  13.9 °C 46.8 °F /  8.2 °C 30.15in /  1020.9hPa Calm     68.5% 0.00in /  0mm 0 W/m2
00:39 56.8 °F /  13.8 °C 46.9 °F /  8.3 °C 30.15in /  1020.9hPa Calm     69.6% 0.00in /  0mm 0 W/m2
00:44 56.5 °F /  13.6 °C 46.9 °F /  8.3 °C 30.15in /  1020.9hPa Calm     70.1% 0.00in /  0mm 0 W/m2
00:49 56.2 °F /  13.4 °C 46.9 °F /  8.3 °C 30.15in /  1020.9hPa Calm     71% 0.00in /  0mm 0 W/m2
00:54 56 °F /  13.3 °C 47.1 °F /  8.4 °C 30.15in /  1020.9hPa Calm     72% 0.00in /  0mm 0 W/m2
00:59 55.7 °F /  13.2 °C 47.2 °F /  8.4 °C 30.15in /  1020.9hPa Calm     73% 0.00in /  0mm 0 W/m2
01:04 55.5 °F /  13.1 °C 47.1 °F /  8.4 °C 30.15in /  1020.9hPa Calm     73.3% 0.00in /  0mm 0 W/m2
01:09 55.3 °F /  12.9 °C 47.1 °F /  8.4 °C 30.15in /  1020.9hPa Calm     74% 0.00in /  0mm 0 W/m2
01:14 55 °F /  12.8 °C 47 °F /  8.3 °C 30.15in /  1020.9hPa Calm     74.3% 0.00in /  0mm 0 W/m2
01:19 54.8 °F /  12.7 °C 47.1 °F /  8.4 °C 30.15in /  1020.9hPa Calm     75% 0.00in /  0mm 0 W/m2
01:24 54.6 °F /  12.6 °C 47.1 °F /  8.4 °C 30.15in /  1020.9hPa Calm     75.8% 0.00in /  0mm 0 W/m2
01:29 54.4 °F /  12.4 °C 47.3 °F /  8.5 °C 30.15in /  1020.9hPa Calm     77% 0.00in /  0mm 0 W/m2
01:34 54.2 °F /  12.3 °C 47.3 °F /  8.5 °C 30.15in /  1020.9hPa Calm     77.6% 0.00in /  0mm 0 W/m2
01:39 54 °F /  12.2 °C 47.4 °F /  8.6 °C 30.15in /  1020.9hPa Calm     78.4% 0.00in /  0mm 0 W/m2
01:40 53.9 °F /  12.2 °C 47.6 °F /  8.7 °C 30.15in /  1020.9hPa Calm     79% 0.00in /  0mm 0 W/m2
02:00 53.2 °F /  11.8 °C 47.2 °F /  8.4 °C 30.14in /  1020.5hPa Calm     80% 0.00in /  0mm 0 W/m2
02:30 52.5 °F /  11.4 °C 47.5 °F /  8.6 °C 30.14in /  1020.5hPa Calm     83% 0.00in /  0mm 0 W/m2
03:00 51.7 °F /  10.9 °C 47 °F /  8.3 °C 30.13in /  1020.2hPa Calm     84% 0.00in /  0mm 0 W/m2
03:30 51 °F /  10.6 °C 46.7 °F /  8.2 °C 30.14in /  1020.5hPa Calm     85% 0.00in /  0mm 0 W/m2
04:04 50.6 °F /  10.3 °C 46.6 °F /  8.1 °C 30.13in /  1020.2hPa Calm     86% 0.00in /  0mm 0 W/m2
04:09 50.6 °F /  10.3 °C 46.4 °F /  8 °C 30.13in /  1020.2hPa Calm     85.5% 0.00in /  0mm 0 W/m2
04:14 50.6 °F /  10.3 °C 46.3 °F /  7.9 °C 30.13in /  1020.2hPa Calm     85% 0.00in /  0mm 0 W/m2
04:19 50.6 °F /  10.3 °C 46.3 °F /  7.9 °C 30.13in /  1020.2hPa Calm     85% 0.00in /  0mm 0 W/m2
04:24 50.6 °F /  10.3 °C 46.3 °F /  7.9 °C 30.13in /  1020.2hPa Calm     85% 0.00in /  0mm 0 W/m2
04:29 50.7 °F /  10.4 °C 46.4 °F /  8 °C 30.13in /  1020.2hPa Calm     85% 0.00in /  0mm 0 W/m2
04:34 50.6 °F /  10.3 °C 46.3 °F /  7.9 °C 30.14in /  1020.5hPa Calm   1mph /  1.6km/h 85% 0.00in /  0mm 0 W/m2
04:39 50.6 °F /  10.3 °C 46.3 °F /  7.9 °C 30.14in /  1020.5hPa Calm   1mph /  1.6km/h 85% 0.00in /  0mm 0 W/m2
04:44 50.6 °F /  10.3 °C 46.3 °F /  7.9 °C 30.14in /  1020.5hPa Calm   1mph /  1.6km/h 85% 0.00in /  0mm 0 W/m2
04:49 50.6 °F /  10.3 °C 46.3 °F /  7.9 °C 30.14in /  1020.5hPa Calm   1mph /  1.6km/h 85% 0.00in /  0mm 0 W/m2
04:54 50.5 °F /  10.3 °C 46.2 °F /  7.9 °C 30.14in /  1020.5hPa Calm   1mph /  1.6km/h 85% 0.00in /  0mm 0 W/m2
04:59 50.5 °F /  10.3 °C 46.2 °F /  7.9 °C 30.14in /  1020.5hPa Calm   1mph /  1.6km/h 85% 0.00in /  0mm 0 W/m2
05:04 50.5 °F /  10.3 °C 46.1 °F /  7.8 °C 30.14in /  1020.5hPa Calm   1mph /  1.6km/h 85% 0.00in /  0mm 0 W/m2
05:09 50.4 °F /  10.2 °C 46 °F /  7.8 °C 30.14in /  1020.5hPa Calm     85% 0.00in /  0mm 0 W/m2
05:14 50.3 °F /  10.2 °C 45.8 °F /  7.7 °C 30.14in /  1020.5hPa Calm   1mph /  1.6km/h 84.4% 0.00in /  0mm 0 W/m2
05:19 50.3 °F /  10.2 °C 46 °F /  7.8 °C 30.14in /  1020.5hPa Calm   2mph /  3.2km/h 85% 0.00in /  0mm 0 W/m2
05:24 50.3 °F /  10.2 °C 46 °F /  7.8 °C 30.14in /  1020.5hPa Calm   2mph /  3.2km/h 85% 0.00in /  0mm 0 W/m2
05:29 50.4 °F /  10.2 °C 46.1 °F /  7.8 °C 30.14in /  1020.5hPa Calm   2mph /  3.2km/h 85% 0.00in /  0mm 0 W/m2
05:34 50.5 °F /  10.3 °C 46 °F /  7.8 °C 30.14in /  1020.5hPa Calm   2mph /  3.2km/h 84.8% 0.00in /  0mm 0 W/m2
05:39 50.5 °F /  10.3 °C 45.9 °F /  7.7 °C 30.14in /  1020.5hPa Calm   1mph /  1.6km/h 84% 0.00in /  0mm 0 W/m2
05:44 50.6 °F /  10.3 °C 46 °F /  7.8 °C 30.14in /  1020.5hPa Calm   1mph /  1.6km/h 84.1% 0.00in /  0mm 0 W/m2
05:49 50.6 °F /  10.3 °C 46.1 °F /  7.8 °C 30.14in /  1020.5hPa Calm   1mph /  1.6km/h 84.4% 0.00in /  0mm 0 W/m2
05:54 50.5 °F /  10.3 °C 46.1 °F /  7.8 °C 30.14in /  1020.5hPa Calm   1mph /  1.6km/h 85% 0.00in /  0mm 0 W/m2
05:59 50.3 °F /  10.2 °C 46 °F /  7.8 °C 30.14in /  1020.5hPa Calm   1mph /  1.6km/h 85% 0.00in /  0mm 0 W/m2
06:04 50.2 °F /  10.1 °C 45.8 °F /  7.7 °C 30.14in /  1020.5hPa Calm   1mph /  1.6km/h 85% 0.00in /  0mm 0 W/m2
06:09 50.1 °F /  10.1 °C 46 °F /  7.8 °C 30.14in /  1020.5hPa Calm     85.9% 0.00in /  0mm 0 W/m2
06:14 50 °F /  10 °C 46 °F /  7.8 °C 30.14in /  1020.5hPa Calm     86% 0.00in /  0mm 0 W/m2
06:19 49.9 °F /  9.9 °C 45.9 °F /  7.7 °C 30.14in /  1020.5hPa Calm     86% 0.00in /  0mm 0 W/m2
06:24 49.8 °F /  9.9 °C 46.1 °F /  7.8 °C 30.15in /  1020.9hPa Calm     87% 0.00in /  0mm 0 W/m2
06:29 49.7 °F /  9.8 °C 46 °F /  7.8 °C 30.15in /  1020.9hPa Calm     87% 0.00in /  0mm 0 W/m2
06:34 49.6 °F /  9.8 °C 45.9 °F /  7.7 °C 30.15in /  1020.9hPa Calm     87% 0.00in /  0mm 0 W/m2
06:39 49.4 °F /  9.7 °C 45.7 °F /  7.6 °C 30.15in /  1020.9hPa Calm     87% 0.00in /  0mm 7 W/m2
06:44 49.4 °F /  9.7 °C 45.7 °F /  7.6 °C 30.15in /  1020.9hPa Calm     87% 0.00in /  0mm 11 W/m2
06:49 49.3 °F /  9.6 °C 45.7 °F /  7.6 °C 30.15in /  1020.9hPa Calm     87.5% 0.00in /  0mm 16 W/m2
06:54 49.2 °F /  9.6 °C 45.7 °F /  7.6 °C 30.15in /  1020.9hPa Calm     87.8% 0.00in /  0mm 19 W/m2
06:59 49.1 °F /  9.5 °C 45.7 °F /  7.6 °C 30.15in /  1020.9hPa Calm     88% 0.00in /  0mm 25 W/m2
07:04 49.1 °F /  9.5 °C 45.7 °F /  7.6 °C 30.15in /  1020.9hPa Calm     88% 0.00in /  0mm 28 W/m2
07:09 49.1 °F /  9.5 °C 45.7 °F /  7.6 °C 30.15in /  1020.9hPa Calm     88% 0.00in /  0mm 33 W/m2
07:14 49.1 °F /  9.5 °C 45.7 °F /  7.6 °C 30.15in /  1020.9hPa Calm     88.1% 0.00in /  0mm 37 W/m2
07:19 49.2 °F /  9.6 °C 46.1 °F /  7.8 °C 30.16in /  1021.2hPa Calm     89% 0.00in /  0mm 40 W/m2
07:24 49.2 °F /  9.6 °C 46.1 °F /  7.8 °C 30.16in /  1021.2hPa Calm     89% 0.00in /  0mm 44 W/m2
07:29 49.4 °F /  9.7 °C 46.3 °F /  7.9 °C 30.16in /  1021.2hPa Calm     89% 0.00in /  0mm 49 W/m2
07:34 49.6 °F /  9.8 °C 46.8 °F /  8.2 °C 30.16in /  1021.2hPa Calm     90% 0.00in /  0mm 51 W/m2
07:39 49.8 °F /  9.9 °C 47 °F /  8.3 °C 30.16in /  1021.2hPa Calm     90% 0.00in /  0mm 54 W/m2
07:44 50 °F /  10 °C 47.2 °F /  8.4 °C 30.16in /  1021.2hPa Calm     90% 0.00in /  0mm 58 W/m2
07:49 50.2 °F /  10.1 °C 47.4 °F /  8.6 °C 30.16in /  1021.2hPa Calm     90% 0.00in /  0mm 60 W/m2
07:54 50.4 °F /  10.2 °C 47.3 °F /  8.5 °C 30.16in /  1021.2hPa Calm     89.1% 0.00in /  0mm 62 W/m2
07:59 50.6 °F /  10.3 °C 47.5 °F /  8.6 °C 30.16in /  1021.2hPa Calm     89% 0.00in /  0mm 63 W/m2
08:04 51 °F /  10.6 °C 47.9 °F /  8.8 °C 30.16in /  1021.2hPa Calm     89% 0.00in /  0mm 69 W/m2
08:09 51.1 °F /  10.6 °C 47.8 °F /  8.8 °C 30.16in /  1021.2hPa Calm     88.5% 0.00in /  0mm 72 W/m2
08:14 51.4 °F /  10.8 °C 47.9 °F /  8.8 °C 30.17in /  1021.6hPa Calm     88% 0.00in /  0mm 76 W/m2
08:19 51.7 °F /  10.9 °C 48.1 °F /  8.9 °C 30.17in /  1021.6hPa Calm     87.5% 0.00in /  0mm 81 W/m2
08:24 52.1 °F /  11.2 °C 48.3 °F /  9.1 °C 30.17in /  1021.6hPa Calm     87% 0.00in /  0mm 90 W/m2
08:29 52.4 °F /  11.3 °C 48.5 °F /  9.2 °C 30.17in /  1021.6hPa Calm     86.6% 0.00in /  0mm 100 W/m2
08:34 52.8 °F /  11.6 °C 48.7 °F /  9.3 °C 30.17in /  1021.6hPa Calm     86% 0.00in /  0mm 109 W/m2
08:39 53.2 °F /  11.8 °C 49 °F /  9.4 °C 30.17in /  1021.6hPa Calm     85.5% 0.00in /  0mm 111 W/m2
08:44 53.7 °F /  12.1 °C 49.2 °F /  9.6 °C 30.17in /  1021.6hPa Calm     84.5% 0.00in /  0mm 128 W/m2
08:49 54.3 °F /  12.4 °C 49.5 °F /  9.7 °C 30.17in /  1021.6hPa Calm     83.7% 0.00in /  0mm 346 W/m2
08:54 55 °F /  12.8 °C 49.5 °F /  9.7 °C 30.17in /  1021.6hPa Calm     81.8% 0.00in /  0mm 387 W/m2
08:59 55.8 °F /  13.2 °C 50 °F /  10 °C 30.17in /  1021.6hPa Calm     80.7% 0.00in /  0mm 397 W/m2
09:04 56.7 °F /  13.7 °C 50 °F /  10 °C 30.17in /  1021.6hPa Calm     78.2% 0.00in /  0mm 415 W/m2
09:09 58.1 °F /  14.5 °C 50 °F /  10 °C 30.17in /  1021.6hPa Calm     74.6% 0.00in /  0mm 431 W/m2
09:14 59.4 °F /  15.2 °C 50.5 °F /  10.3 °C 30.17in /  1021.6hPa Calm     72.2% 0.00in /  0mm 455 W/m2
09:19 60.8 °F /  16 °C 50.2 °F /  10.1 °C 30.17in /  1021.6hPa Calm   2mph /  3.2km/h 67.9% 0.00in /  0mm 476 W/m2
09:24 62.1 °F /  16.7 °C 49.8 °F /  9.9 °C 30.17in /  1021.6hPa NW 0.9mph /  1.4km/h 3mph /  4.8km/h 64% 0.00in /  0mm 485 W/m2
09:29 63.2 °F /  17.3 °C 48.7 °F /  9.3 °C 30.17in /  1021.6hPa Calm   3mph /  4.8km/h 59.2% 0.00in /  0mm 510 W/m2
09:34 64 °F /  17.8 °C 49.7 °F /  9.8 °C 30.17in /  1021.6hPa NW 0.3mph /  0.5km/h 3mph /  4.8km/h 59.8% 0.00in /  0mm 564 W/m2
09:39 64.7 °F /  18.2 °C 49.5 °F /  9.7 °C 30.17in /  1021.6hPa Calm   3mph /  4.8km/h 57.7% 0.00in /  0mm 643 W/m2
09:44 65.3 °F /  18.5 °C 49.8 °F /  9.9 °C 30.17in /  1021.6hPa Calm   3mph /  4.8km/h 57.2% 0.00in /  0mm 552 W/m2
09:49 65.6 °F /  18.7 °C 48.9 °F /  9.4 °C 30.17in /  1021.6hPa WNW 1mph /  1.6km/h 6mph /  9.7km/h 54.8% 0.00in /  0mm 626 W/m2
09:54 65.8 °F /  18.8 °C 49.1 °F /  9.5 °C 30.17in /  1021.6hPa WNW 0.2mph /  0.3km/h 6mph /  9.7km/h 54.9% 0.00in /  0mm 599 W/m2
09:59 66.2 °F /  19 °C 49.7 °F /  9.8 °C 30.16in /  1021.2hPa WNW 0.1mph /  0.2km/h 6mph /  9.7km/h 55.2% 0.00in /  0mm 605 W/m2
10:04 66.6 °F /  19.2 °C 49.7 °F /  9.8 °C 30.16in /  1021.2hPa WNW 0.3mph /  0.5km/h 6mph /  9.7km/h 54.3% 0.00in /  0mm 617 W/m2
10:09 67.1 °F /  19.5 °C 49.9 °F /  9.9 °C 30.16in /  1021.2hPa WNW 0.3mph /  0.5km/h 3mph /  4.8km/h 53.9% 0.00in /  0mm 619 W/m2
10:14 67.5 °F /  19.7 °C 49.9 °F /  9.9 °C 30.16in /  1021.2hPa WNW 1.8mph /  2.9km/h 6mph /  9.7km/h 53.3% 0.00in /  0mm 629 W/m2
10:19 67.7 °F /  19.8 °C 49.9 °F /  9.9 °C 30.16in /  1021.2hPa WNW 0.1mph /  0.2km/h 6mph /  9.7km/h 52.9% 0.00in /  0mm 638 W/m2
10:24 68.2 °F /  20.1 °C 51.2 °F /  10.7 °C 30.16in /  1021.2hPa WNW 0.1mph /  0.2km/h 6mph /  9.7km/h 54.7% 0.00in /  0mm 656 W/m2
10:29 68.6 °F /  20.3 °C 51.3 °F /  10.7 °C 30.16in /  1021.2hPa WNW 0.1mph /  0.2km/h 6mph /  9.7km/h 53.9% 0.00in /  0mm 663 W/m2
10:34 68.8 °F /  20.4 °C 51.4 °F /  10.8 °C 30.16in /  1021.2hPa WNW 0.2mph /  0.3km/h 6mph /  9.7km/h 53.7% 0.00in /  0mm 666 W/m2
10:39 69.1 °F /  20.6 °C 51.4 °F /  10.8 °C 30.16in /  1021.2hPa West 1mph /  1.6km/h 6mph /  9.7km/h 53.4% 0.00in /  0mm 679 W/m2
10:44 69.3 °F /  20.7 °C 50.9 °F /  10.5 °C 30.16in /  1021.2hPa West 1.3mph /  2.1km/h 6mph /  9.7km/h 52.1% 0.00in /  0mm 691 W/m2
10:49 69.4 °F /  20.8 °C 51.4 °F /  10.8 °C 30.16in /  1021.2hPa WNW 0.1mph /  0.2km/h 6mph /  9.7km/h 52.8% 0.00in /  0mm 693 W/m2
10:54 69.6 °F /  20.9 °C 51.7 °F /  10.9 °C 30.16in /  1021.2hPa Calm   6mph /  9.7km/h 52.8% 0.00in /  0mm 710 W/m2
10:59 69.8 °F /  21 °C 50.4 °F /  10.2 °C 30.15in /  1020.9hPa WNW 1.2mph /  1.9km/h 6mph /  9.7km/h 50.2% 0.00in /  0mm 721 W/m2
11:04 70 °F /  21.1 °C 50.5 °F /  10.3 °C 30.16in /  1021.2hPa Calm   6mph /  9.7km/h 50% 0.00in /  0mm 726 W/m2
11:09 70.3 °F /  21.3 °C 51.8 °F /  11 °C 30.16in /  1021.2hPa Calm   1mph /  1.6km/h 51.8% 0.00in /  0mm 735 W/m2
11:14 70.4 °F /  21.3 °C 50.3 °F /  10.2 °C 30.16in /  1021.2hPa NW 0.8mph /  1.3km/h 4mph /  6.4km/h 48.9% 0.00in /  0mm 738 W/m2
11:19 70.4 °F /  21.3 °C 50.2 °F /  10.1 °C 30.16in /  1021.2hPa NNW 0.2mph /  0.3km/h 4mph /  6.4km/h 48.7% 0.00in /  0mm 742 W/m2
11:24 70.5 °F /  21.4 °C 50.8 °F /  10.4 °C 30.15in /  1020.9hPa NNW 0.1mph /  0.2km/h 4mph /  6.4km/h 49.8% 0.00in /  0mm 745 W/m2
11:29 70.8 °F /  21.6 °C 50.9 °F /  10.5 °C 30.15in /  1020.9hPa NNW 1.1mph /  1.8km/h 4mph /  6.4km/h 49.3% 0.00in /  0mm 749 W/m2
11:34 71.1 °F /  21.7 °C 50.3 °F /  10.2 °C 30.15in /  1020.9hPa WNW 1.1mph /  1.8km/h 6mph /  9.7km/h 47.8% 0.00in /  0mm 605 W/m2
11:39 71.2 °F /  21.8 °C 50.4 °F /  10.2 °C 30.15in /  1020.9hPa WNW 1mph /  1.6km/h 6mph /  9.7km/h 47.7% 0.00in /  0mm 188 W/m2
11:44 70.7 °F /  21.5 °C 50.2 °F /  10.1 °C 30.15in /  1020.9hPa Calm   6mph /  9.7km/h 48.1% 0.00in /  0mm 160 W/m2
11:49 70.3 °F /  21.3 °C 49.8 °F /  9.9 °C 30.15in /  1020.9hPa West 2.3mph /  3.7km/h 10mph /  16.1km/h 48.1% 0.00in /  0mm 160 W/m2
11:54 70 °F /  21.1 °C 49.4 °F /  9.7 °C 30.15in /  1020.9hPa West 1mph /  1.6km/h 10mph /  16.1km/h 47.9% 0.00in /  0mm 120 W/m2
11:59 69.9 °F /  21.1 °C 50.6 °F /  10.3 °C 30.15in /  1020.9hPa West 0.7mph /  1.1km/h 10mph /  16.1km/h 50.4% 0.00in /  0mm 118 W/m2
12:00 69.8 °F /  21 °C 49.8 °F /  9.9 °C 30.15in /  1020.9hPa Calm   10mph /  16.1km/h 49% 0.00in /  0mm 104 W/m2
12:09 69.8 °F /  21 °C 50.2 °F /  10.1 °C 30.14in /  1020.5hPa WNW 0.7mph /  1.1km/h 4mph /  6.4km/h 49.9% 0.00in /  0mm 146 W/m2
12:14 69.7 °F /  20.9 °C 50.8 °F /  10.4 °C 30.14in /  1020.5hPa WNW 0.1mph /  0.2km/h 4mph /  6.4km/h 51.1% 0.00in /  0mm 163 W/m2
12:19 69.6 °F /  20.9 °C 51.7 °F /  10.9 °C 30.13in /  1020.2hPa WNW 1mph /  1.6km/h 6mph /  9.7km/h 53% 0.00in /  0mm 179 W/m2
12:24 69.8 °F /  21 °C 51.6 °F /  10.9 °C 30.13in /  1020.2hPa West 1mph /  1.6km/h 6mph /  9.7km/h 52.4% 0.00in /  0mm 287 W/m2
12:29 70 °F /  21.1 °C 52.3 °F /  11.3 °C 30.13in /  1020.2hPa WNW 0.8mph /  1.3km/h 6mph /  9.7km/h 53.3% 0.00in /  0mm 172 W/m2
12:34 70.3 °F /  21.3 °C 51.4 °F /  10.8 °C 30.13in /  1020.2hPa NNW 1.1mph /  1.8km/h 6mph /  9.7km/h 51.1% 0.00in /  0mm 257 W/m2
12:39 70.2 °F /  21.2 °C 51 °F /  10.6 °C 30.13in /  1020.2hPa NNW 0.9mph /  1.4km/h 6mph /  9.7km/h 50.6% 0.00in /  0mm 257 W/m2
12:44 70.2 °F /  21.2 °C 50.6 °F /  10.3 °C 30.13in /  1020.2hPa WNW 2.4mph /  3.9km/h 9mph /  14.5km/h 49.8% 0.00in /  0mm 146 W/m2
12:49 70.2 °F /  21.2 °C 51 °F /  10.6 °C 30.13in /  1020.2hPa NNW 1.1mph /  1.8km/h 9mph /  14.5km/h 50.6% 0.00in /  0mm 90 W/m2
12:54 70.1 °F /  21.2 °C 50.2 °F /  10.1 °C 30.13in /  1020.2hPa Calm   9mph /  14.5km/h 49.2% 0.00in /  0mm 84 W/m2
12:59 70 °F /  21.1 °C 49.3 °F /  9.6 °C 30.13in /  1020.2hPa NNE 0.3mph /  0.5km/h 9mph /  14.5km/h 47.8% 0.00in /  0mm 299 W/m2
13:04 70 °F /  21.1 °C 50.2 °F /  10.1 °C 30.13in /  1020.2hPa NW 1.6mph /  2.6km/h 9mph /  14.5km/h 49.4% 0.00in /  0mm 156 W/m2
13:09 70.2 °F /  21.2 °C 50.2 °F /  10.1 °C 30.12in /  1019.9hPa WNW 1.4mph /  2.3km/h 8mph /  12.9km/h 49.1% 0.00in /  0mm 114 W/m2
13:14 70.3 °F /  21.3 °C 49 °F /  9.4 °C 30.12in /  1019.9hPa NW 1.1mph /  1.8km/h 8mph /  12.9km/h 46.7% 0.00in /  0mm 114 W/m2
13:19 70.4 °F /  21.3 °C 47.9 °F /  8.8 °C 30.12in /  1019.9hPa NNW 0.9mph /  1.4km/h 11mph /  17.7km/h 44.7% 0.00in /  0mm 91 W/m2
13:24 70.5 °F /  21.4 °C 48.6 °F /  9.2 °C 30.11in /  1019.5hPa NNW 0.3mph /  0.5km/h 11mph /  17.7km/h 45.8% 0.00in /  0mm 70 W/m2
13:29 70.5 °F /  21.4 °C 48.5 °F /  9.2 °C 30.11in /  1019.5hPa NNW 0.5mph /  0.8km/h 11mph /  17.7km/h 45.6% 0.00in /  0mm 76 W/m2
13:34 70.8 °F /  21.6 °C 49.9 °F /  9.9 °C 30.11in /  1019.5hPa WSW 0.5mph /  0.8km/h 11mph /  17.7km/h 47.5% 0.00in /  0mm 81 W/m2
13:39 71 °F /  21.7 °C 48.9 °F /  9.4 °C 30.11in /  1019.5hPa West 1.1mph /  1.8km/h 7mph /  11.3km/h 45.6% 0.00in /  0mm 86 W/m2
13:44 71.1 °F /  21.7 °C 49.6 °F /  9.8 °C 30.11in /  1019.5hPa West 0.8mph /  1.3km/h 7mph /  11.3km/h 46.5% 0.00in /  0mm 69 W/m2
13:49 71.3 °F /  21.8 °C 50 °F /  10 °C 30.11in /  1019.5hPa WSW 0.8mph /  1.3km/h 7mph /  11.3km/h 46.9% 0.00in /  0mm 63 W/m2
13:54 71.4 °F /  21.9 °C 50 °F /  10 °C 30.11in /  1019.5hPa NW 1.1mph /  1.8km/h 7mph /  11.3km/h 46.7% 0.00in /  0mm 65 W/m2
13:59 71.6 °F /  22 °C 50.8 °F /  10.4 °C 30.10in /  1019.2hPa NW 1.6mph /  2.6km/h 7mph /  11.3km/h 47.8% 0.00in /  0mm 67 W/m2
14:04 71.5 °F /  21.9 °C 50.6 °F /  10.3 °C 30.10in /  1019.2hPa NW 3.4mph /  5.5km/h 10mph /  16.1km/h 47.6% 0.00in /  0mm 95 W/m2
14:09 71.6 °F /  22 °C 51.2 °F /  10.7 °C 30.09in /  1018.8hPa WNW 1.4mph /  2.3km/h 10mph /  16.1km/h 48.6% 0.00in /  0mm 74 W/m2
14:14 71.6 °F /  22 °C 51.1 °F /  10.6 °C 30.09in /  1018.8hPa WNW 1.4mph /  2.3km/h 10mph /  16.1km/h 48.4% 0.00in /  0mm 70 W/m2
14:19 71.6 °F /  22 °C 51.2 °F /  10.7 °C 30.09in /  1018.8hPa WNW 1.7mph /  2.7km/h 10mph /  16.1km/h 48.5% 0.00in /  0mm 234 W/m2
14:24 71.6 °F /  22 °C 51.3 °F /  10.7 °C 30.09in /  1018.8hPa West 2.1mph /  3.4km/h 10mph /  16.1km/h 48.7% 0.00in /  0mm 561 W/m2
14:29 71.8 °F /  22.1 °C 51.9 °F /  11.1 °C 30.09in /  1018.8hPa West 2.9mph /  4.7km/h 10mph /  16.1km/h 49.5% 0.00in /  0mm 185 W/m2
14:34 71.9 °F /  22.2 °C 51.2 °F /  10.7 °C 30.09in /  1018.8hPa WNW 2.3mph /  3.7km/h 10mph /  16.1km/h 48% 0.00in /  0mm 104 W/m2
14:39 72 °F /  22.2 °C 51.6 °F /  10.9 °C 30.09in /  1018.8hPa WNW 1.2mph /  1.9km/h 10mph /  16.1km/h 48.7% 0.00in /  0mm 100 W/m2
14:44 72.1 °F /  22.3 °C 51.8 °F /  11 °C 30.09in /  1018.8hPa WNW 1.6mph /  2.6km/h 10mph /  16.1km/h 48.8% 0.00in /  0mm 475 W/m2
14:49 72.2 °F /  22.3 °C 51.6 °F /  10.9 °C 30.08in /  1018.5hPa NW 2.1mph /  3.4km/h 11mph /  17.7km/h 48.2% 0.00in /  0mm 503 W/m2
14:54 72.3 °F /  22.4 °C 51.4 °F /  10.8 °C 30.08in /  1018.5hPa West 1.8mph /  2.9km/h 11mph /  17.7km/h 47.8% 0.00in /  0mm 183 W/m2
14:59 72.3 °F /  22.4 °C 52 °F /  11.1 °C 30.08in /  1018.5hPa WNW 2.1mph /  3.4km/h 11mph /  17.7km/h 48.8% 0.00in /  0mm 568 W/m2
15:04 72.4 °F /  22.4 °C 52.6 °F /  11.4 °C 30.08in /  1018.5hPa West 1.8mph /  2.9km/h 11mph /  17.7km/h 49.8% 0.00in /  0mm 381 W/m2
15:09 72.5 °F /  22.5 °C 52.4 °F /  11.3 °C 30.08in /  1018.5hPa WNW 3.3mph /  5.3km/h 11mph /  17.7km/h 49.1% 0.00in /  0mm 264 W/m2
15:14 72.6 °F /  22.6 °C 52.2 °F /  11.2 °C 30.08in /  1018.5hPa WNW 1.3mph /  2.1km/h 11mph /  17.7km/h 48.6% 0.00in /  0mm 552 W/m2
15:19 72.9 °F /  22.7 °C 53.3 °F /  11.8 °C 30.08in /  1018.5hPa West 1.5mph /  2.4km/h 11mph /  17.7km/h 50.2% 0.00in /  0mm 606 W/m2
15:24 73.3 °F /  22.9 °C 53.3 °F /  11.8 °C 30.08in /  1018.5hPa WNW 3.3mph /  5.3km/h 11mph /  17.7km/h 49.5% 0.00in /  0mm 605 W/m2
15:29 73.6 °F /  23.1 °C 53 °F /  11.7 °C 30.08in /  1018.5hPa West 3mph /  4.8km/h 11mph /  17.7km/h 48.5% 0.00in /  0mm 594 W/m2
15:34 73.8 °F /  23.2 °C 53 °F /  11.7 °C 30.07in /  1018.2hPa WSW 2.1mph /  3.4km/h 11mph /  17.7km/h 48.1% 0.00in /  0mm 591 W/m2
15:39 74.2 °F /  23.4 °C 53.7 °F /  12.1 °C 30.08in /  1018.5hPa West 1.2mph /  1.9km/h 9mph /  14.5km/h 48.8% 0.00in /  0mm 580 W/m2
15:44 74.6 °F /  23.7 °C 54.4 °F /  12.4 °C 30.08in /  1018.5hPa West 2.6mph /  4.2km/h 9mph /  14.5km/h 49.4% 0.00in /  0mm 550 W/m2
15:49 74.6 °F /  23.7 °C 53.2 °F /  11.8 °C 30.08in /  1018.5hPa WSW 2.5mph /  4km/h 9mph /  14.5km/h 47.3% 0.00in /  0mm 538 W/m2
15:54 74.5 °F /  23.6 °C 53.8 °F /  12.1 °C 30.08in /  1018.5hPa West 0.4mph /  0.6km/h 9mph /  14.5km/h 48.5% 0.00in /  0mm 536 W/m2
15:59 74.3 °F /  23.5 °C 54.2 °F /  12.3 °C 30.07in /  1018.2hPa WNW 3.3mph /  5.3km/h 9mph /  14.5km/h 49.5% 0.00in /  0mm 54 W/m2
16:00 74.1 °F /  23.4 °C 53.7 °F /  12.1 °C 30.07in /  1018.2hPa NNW 3mph /  4.8km/h 9mph /  14.5km/h 49% 0.00in /  0mm 54 W/m2
16:09 73.8 °F /  23.2 °C 53.9 °F /  12.2 °C 30.07in /  1018.2hPa West 0.4mph /  0.6km/h 3mph /  4.8km/h 49.8% 0.00in /  0mm 54 W/m2
16:14 73.8 °F /  23.2 °C 54.1 °F /  12.3 °C 30.08in /  1018.5hPa West 3.4mph /  5.5km/h 10mph /  16.1km/h 50.2% 0.00in /  0mm 53 W/m2
16:19 73.7 °F /  23.2 °C 53.6 °F /  12 °C 30.08in /  1018.5hPa WNW 1.2mph /  1.9km/h 10mph /  16.1km/h 49.4% 0.00in /  0mm 51 W/m2
16:24 73.6 °F /  23.1 °C 54.2 °F /  12.3 °C 30.08in /  1018.5hPa WNW 1.6mph /  2.6km/h 10mph /  16.1km/h 50.8% 0.00in /  0mm 47 W/m2
16:29 73.5 °F /  23.1 °C 54.4 °F /  12.4 °C 30.08in /  1018.5hPa WNW 2.2mph /  3.5km/h 11mph /  17.7km/h 51.3% 0.00in /  0mm 46 W/m2
16:34 73.5 °F /  23.1 °C 54.5 °F /  12.5 °C 30.08in /  1018.5hPa WNW 2.2mph /  3.5km/h 11mph /  17.7km/h 51.4% 0.00in /  0mm 44 W/m2
16:39 73.5 °F /  23.1 °C 54.4 °F /  12.4 °C 30.08in /  1018.5hPa NW 2.6mph /  4.2km/h 10mph /  16.1km/h 51.3% 0.00in /  0mm 42 W/m2
16:44 73.4 °F /  23 °C 54.4 °F /  12.4 °C 30.08in /  1018.5hPa WNW 1.7mph /  2.7km/h 10mph /  16.1km/h 51.5% 0.00in /  0mm 40 W/m2
16:49 73.4 °F /  23 °C 54.2 °F /  12.3 °C 30.08in /  1018.5hPa WNW 3.4mph /  5.5km/h 11mph /  17.7km/h 51% 0.00in /  0mm 40 W/m2
16:54 73.3 °F /  22.9 °C 54.4 °F /  12.4 °C 30.08in /  1018.5hPa WNW 1.6mph /  2.6km/h 11mph /  17.7km/h 51.4% 0.00in /  0mm 39 W/m2
16:59 73.3 °F /  22.9 °C 54.8 °F /  12.7 °C 30.08in /  1018.5hPa WNW 2.9mph /  4.7km/h 11mph /  17.7km/h 52.3% 0.00in /  0mm 39 W/m2
17:04 73.2 °F /  22.9 °C 54.4 °F /  12.4 °C 30.08in /  1018.5hPa WNW 1.6mph /  2.6km/h 11mph /  17.7km/h 51.6% 0.00in /  0mm 39 W/m2
17:09 73.1 °F /  22.8 °C 54.4 °F /  12.4 °C 30.08in /  1018.5hPa NW 1.6mph /  2.6km/h 9mph /  14.5km/h 51.9% 0.00in /  0mm 37 W/m2
17:14 73 °F /  22.8 °C 54.4 °F /  12.4 °C 30.08in /  1018.5hPa NW 2.9mph /  4.7km/h 12mph /  19.3km/h 52% 0.00in /  0mm 35 W/m2
17:19 72.9 °F /  22.7 °C 54.2 °F /  12.3 °C 30.08in /  1018.5hPa NW 2.3mph /  3.7km/h 12mph /  19.3km/h 52% 0.00in /  0mm 33 W/m2
17:24 72.6 °F /  22.6 °C 53.9 °F /  12.2 °C 30.08in /  1018.5hPa NW 2.2mph /  3.5km/h 12mph /  19.3km/h 51.8% 0.00in /  0mm 33 W/m2
17:29 72.4 °F /  22.4 °C 53.9 °F /  12.2 °C 30.08in /  1018.5hPa WNW 3.5mph /  5.6km/h 14mph /  22.5km/h 52.2% 0.00in /  0mm 32 W/m2
17:34 72.2 °F /  22.3 °C 54.1 °F /  12.3 °C 30.09in /  1018.8hPa WNW 2.2mph /  3.5km/h 14mph /  22.5km/h 52.9% 0.00in /  0mm 32 W/m2
17:39 72.1 °F /  22.3 °C 54.2 °F /  12.3 °C 30.09in /  1018.8hPa WNW 1.8mph /  2.9km/h 10mph /  16.1km/h 53.4% 0.00in /  0mm 30 W/m2
17:44 71.9 °F /  22.2 °C 54.3 °F /  12.4 °C 30.09in /  1018.8hPa WNW 2.4mph /  3.9km/h 10mph /  16.1km/h 53.8% 0.00in /  0mm 28 W/m2
17:49 71.7 °F /  22.1 °C 54 °F /  12.2 °C 30.09in /  1018.8hPa WNW 2.1mph /  3.4km/h 10mph /  16.1km/h 53.6% 0.00in /  0mm 25 W/m2
17:54 71.5 °F /  21.9 °C 54 °F /  12.2 °C 30.09in /  1018.8hPa WNW 2.2mph /  3.5km/h 11mph /  17.7km/h 54% 0.00in /  0mm 23 W/m2
17:59 71.3 °F /  21.8 °C 54.3 °F /  12.4 °C 30.09in /  1018.8hPa WNW 1.2mph /  1.9km/h 11mph /  17.7km/h 54.9% 0.00in /  0mm 23 W/m2
18:04 71.1 °F /  21.7 °C 54.3 °F /  12.4 °C 30.09in /  1018.8hPa WNW 0.3mph /  0.5km/h 11mph /  17.7km/h 55.3% 0.00in /  0mm 21 W/m2
18:09 71 °F /  21.7 °C 54.9 °F /  12.7 °C 30.09in /  1018.8hPa WNW 0.5mph /  0.8km/h 4mph /  6.4km/h 56.9% 0.00in /  0mm 19 W/m2
18:14 70.7 °F /  21.5 °C 54.6 °F /  12.6 °C 30.09in /  1018.8hPa WNW 1.4mph /  2.3km/h 7mph /  11.3km/h 56.7% 0.00in /  0mm 18 W/m2
18:19 70.5 °F /  21.4 °C 54.6 °F /  12.6 °C 30.09in /  1018.8hPa WNW 0.2mph /  0.3km/h 7mph /  11.3km/h 57% 0.00in /  0mm 18 W/m2
18:24 70.4 °F /  21.3 °C 54.6 °F /  12.6 °C 30.09in /  1018.8hPa WNW 0.1mph /  0.2km/h 7mph /  11.3km/h 57.3% 0.00in /  0mm 16 W/m2
18:29 70.2 °F /  21.2 °C 54.8 °F /  12.7 °C 30.10in /  1019.2hPa WNW 0.1mph /  0.2km/h 7mph /  11.3km/h 58% 0.00in /  0mm 14 W/m2
18:34 70.1 °F /  21.2 °C 54.6 °F /  12.6 °C 30.10in /  1019.2hPa WNW 0.2mph /  0.3km/h 7mph /  11.3km/h 58% 0.00in /  0mm 12 W/m2
18:39 69.9 °F /  21.1 °C 54.6 °F /  12.6 °C 30.10in /  1019.2hPa Calm   2mph /  3.2km/h 58.3% 0.00in /  0mm 9 W/m2
18:44 69.7 °F /  20.9 °C 54.7 °F /  12.6 °C 30.10in /  1019.2hPa Calm   2mph /  3.2km/h 59% 0.00in /  0mm 7 W/m2
18:48 69.5 °F /  20.8 °C 54.5 °F /  12.5 °C 30.10in /  1019.2hPa Calm   2mph /  3.2km/h 59% 0.00in /  0mm 5 W/m2
Hartford County Weather
Compliments of Weather Underground - 4 mb